Terminal Aerodrome Forecast
Issued by NWS Atlanta, GA

Home | Current Version | Previous Version | Text Only | Print | Product List | Glossary On
Versions: 1 2 3 4 5 6 7 8 9 10 11 12 13 14 15 16 17 18 19 20 21 22 23 24 25 26 27 28 29 30 31 32 33 34 35 36 37 38
000
FTUS42 KFFC 310100 AAA
TAFATL
TAF AMD
KATL 310144Z 3102/0106 02006KT P6SM FEW070 SCT250
     FM310400 05005KT P6SM BKN200
     FM311600 09007KT P6SM SCT040 SCT200
     FM311800 07007KT P6SM BKN050
     FM010300 07008KT P6SM SCT020 BKN150=

USA.gov is the U.S. government's official web portal to all federal, state and local government web resources and services.